Time;durP1;ratioP1;P1;durP2;ratioP2;P2;SDS_P1;SDS_P2;PMS_P1;PMS_P2;Temp;Humidity;BMP_temperature;BMP_pressure;BME280_temperature;BME280_humidity;BME280_pressure;Samples;Min_cycle;Max_cycle;Signal;HPM_P1;HPM_P2
2021/11/19 00:01:57;;;;;;;;;35.00;33.00;;;;;;;;5087015;28;10936;-78
2021/11/19 00:04:25;;;;;;;;;31.50;27.00;;;;;;;;5099269;28;11174;-80
2021/11/19 00:06:54;;;;;;;;;26.00;25.25;;;;;;;;5088570;28;10894;-81
2021/11/19 00:09:22;;;;;;;;;26.75;25.50;;;;;;;;5085678;28;10918;-81
2021/11/19 00:11:50;;;;;;;;;30.25;26.75;;;;;;;;5092642;28;10829;-79
2021/11/19 00:14:19;;;;;;;;;25.00;25.00;;;;;;;;5098130;28;10968;-78
2021/11/19 00:16:54;;;;;;;;;29.25;26.00;;;;;;;;5087871;28;11078;-80
2021/11/19 00:19:23;;;;;;;;;34.00;31.00;;;;;;;;5075335;28;10845;-79
2021/11/19 00:21:51;;;;;;;;;26.00;23.50;;;;;;;;5102796;28;10891;-80
2021/11/19 00:24:18;;;;;;;;;26.75;26.50;;;;;;;;5094871;28;10976;-80
2021/11/19 00:26:46;;;;;;;;;25.75;23.00;;;;;;;;5094515;28;10949;-81
2021/11/19 00:29:15;;;;;;;;;32.25;29.75;;;;;;;;5102268;28;10729;-79
2021/11/19 00:31:43;;;;;;;;;32.50;28.00;;;;;;;;5084834;28;10880;-81
2021/11/19 00:34:12;;;;;;;;;29.25;26.25;;;;;;;;5102739;28;11074;-80
2021/11/19 00:36:39;;;;;;;;;31.75;26.75;;;;;;;;5085960;28;11001;-81
2021/11/19 00:39:10;;;;;;;;;31.75;26.75;;;;;;;;5084313;28;11016;-80
2021/11/19 00:41:39;;;;;;;;;40.25;35.75;;;;;;;;5082503;28;10987;-77
2021/11/19 00:44:09;;;;;;;;;31.75;29.50;;;;;;;;5089667;28;11106;-77
2021/11/19 00:46:36;;;;;;;;;36.50;31.00;;;;;;;;5095527;28;10972;-82
2021/11/19 00:49:04;;;;;;;;;34.25;31.75;;;;;;;;5086875;28;11029;-78
2021/11/19 00:51:36;;;;;;;;;27.75;27.75;;;;;;;;5102776;28;11236;-79
2021/11/19 00:54:05;;;;;;;;;34.75;28.75;;;;;;;;5104155;28;11082;-78
2021/11/19 00:56:35;;;;;;;;;31.75;30.25;;;;;;;;5086256;28;11021;-81
2021/11/19 00:59:03;;;;;;;;;31.75;31.75;;;;;;;;5084651;28;11178;-80
2021/11/19 01:01:34;;;;;;;;;34.00;30.75;;;;;;;;5088872;28;10849;-80
2021/11/19 01:04:04;;;;;;;;;33.50;29.75;;;;;;;;5097699;28;11147;-79
2021/11/19 01:06:33;;;;;;;;;34.75;29.25;;;;;;;;5095297;28;11067;-80
2021/11/19 01:09:03;;;;;;;;;36.00;33.25;;;;;;;;5093760;28;11190;-79
2021/11/19 01:11:31;;;;;;;;;33.00;28.75;;;;;;;;5080727;28;11744;-78
2021/11/19 01:14:00;;;;;;;;;35.00;33.00;;;;;;;;5084274;28;10967;-80
2021/11/19 01:16:36;;;;;;;;;29.75;26.75;;;;;;;;5097108;28;11169;-81
2021/11/19 01:19:08;;;;;;;;;28.50;25.50;;;;;;;;5083736;28;11048;-75
2021/11/19 01:21:39;;;;;;;;;30.50;26.25;;;;;;;;5084565;28;11143;-78
2021/11/19 01:24:07;;;;;;;;;31.25;26.00;;;;;;;;5097240;28;11099;-78
2021/11/19 01:26:37;;;;;;;;;24.50;22.00;;;;;;;;5088741;28;11009;-80
2021/11/19 01:29:07;;;;;;;;;31.25;27.25;;;;;;;;5083270;28;11043;-80
2021/11/19 01:31:38;;;;;;;;;29.75;28.25;;;;;;;;5087792;28;10974;-81
2021/11/19 01:34:06;;;;;;;;;22.50;22.50;;;;;;;;5088801;28;11191;-79
2021/11/19 01:36:33;;;;;;;;;30.50;26.50;;;;;;;;5084622;28;11130;-79
2021/11/19 01:39:03;;;;;;;;;33.75;32.75;;;;;;;;5083416;28;11160;-80
2021/11/19 01:41:35;;;;;;;;;29.25;26.25;;;;;;;;5083656;28;11354;-79
2021/11/19 01:44:12;;;;;;;;;25.00;21.50;;;;;;;;5083893;28;11075;-80
2021/11/19 01:46:44;;;;;;;;;29.25;25.50;;;;;;;;5081609;28;11055;-78
2021/11/19 01:49:12;;;;;;;;;26.25;24.25;;;;;;;;5098514;28;11283;-80
2021/11/19 01:51:43;;;;;;;;;36.50;28.25;;;;;;;;5106033;28;11055;-79
2021/11/19 01:54:20;;;;;;;;;25.00;25.00;;;;;;;;5090936;28;10883;-80
2021/11/19 01:56:50;;;;;;;;;24.50;22.00;;;;;;;;5087800;28;11126;-80
2021/11/19 01:59:21;;;;;;;;;32.75;28.25;;;;;;;;5094609;28;11090;-79
2021/11/19 02:01:51;;;;;;;;;26.25;22.25;;;;;;;;5095545;27;11093;-81
2021/11/19 02:04:21;;;;;;;;;28.25;26.50;;;;;;;;5102340;28;10890;-80
2021/11/19 02:06:50;;;;;;;;;28.25;26.75;;;;;;;;5089965;28;11127;-79
2021/11/19 02:09:25;;;;;;;;;30.50;25.50;;;;;;;;5086773;28;10991;-79
2021/11/19 02:12:08;;;;;;;;;33.50;29.25;;;;;;;;5086415;28;10988;-79
2021/11/19 02:14:44;;;;;;;;;27.25;27.25;;;;;;;;5089718;28;11199;-80
2021/11/19 02:17:12;;;;;;;;;23.75;22.00;;;;;;;;5093503;28;10906;-78
2021/11/19 02:19:45;;;;;;;;;29.50;27.50;;;;;;;;5089929;28;10882;-79
2021/11/19 02:22:19;;;;;;;;;34.75;31.50;;;;;;;;5087305;28;11753;-79
2021/11/19 02:24:50;;;;;;;;;31.25;29.25;;;;;;;;5091742;28;11108;-79
2021/11/19 02:27:22;;;;;;;;;24.00;20.00;;;;;;;;5087404;28;10946;-80
2021/11/19 02:29:52;;;;;;;;;28.50;26.50;;;;;;;;5096782;28;11834;-78
2021/11/19 02:32:23;;;;;;;;;40.00;33.00;;;;;;;;5094267;27;10746;-79
2021/11/19 02:34:51;;;;;;;;;34.50;31.25;;;;;;;;5100048;28;11969;-79
2021/11/19 02:37:23;;;;;;;;;32.25;30.75;;;;;;;;5103185;28;10925;-78
2021/11/19 02:39:53;;;;;;;;;21.50;21.50;;;;;;;;5088541;28;11060;-80
2021/11/19 02:42:23;;;;;;;;;33.50;29.50;;;;;;;;5086227;28;11055;-79
2021/11/19 02:44:52;;;;;;;;;32.50;30.00;;;;;;;;5086583;28;11137;-83
2021/11/19 02:47:23;;;;;;;;;28.00;26.00;;;;;;;;5096810;28;11127;-81
2021/11/19 02:49:51;;;;;;;;;31.75;31.75;;;;;;;;5089689;28;11112;-82
2021/11/19 02:52:25;;;;;;;;;26.75;24.50;;;;;;;;5099567;28;10874;-80
2021/11/19 02:54:54;;;;;;;;;36.75;31.75;;;;;;;;5087812;28;10883;-81
2021/11/19 02:57:23;;;;;;;;;35.25;32.50;;;;;;;;5094108;28;11059;-81
2021/11/19 02:59:50;;;;;;;;;33.75;31.00;;;;;;;;5093789;28;11160;-79
2021/11/19 03:02:22;;;;;;;;;30.50;26.25;;;;;;;;5090912;27;11022;-81
2021/11/19 03:04:52;;;;;;;;;28.25;25.50;;;;;;;;5105712;28;11113;-82
2021/11/19 03:07:21;;;;;;;;;30.75;30.00;;;;;;;;5088705;28;11073;-82
2021/11/19 03:09:49;;;;;;;;;31.00;24.25;;;;;;;;5085525;28;11094;-80
2021/11/19 03:12:22;;;;;;;;;33.25;33.25;;;;;;;;5086992;28;11194;-82
2021/11/19 03:14:51;;;;;;;;;32.25;30.25;;;;;;;;5098144;28;11196;-82
2021/11/19 03:17:20;;;;;;;;;33.25;30.50;;;;;;;;5105336;28;11119;-82
2021/11/19 03:19:48;;;;;;;;;38.25;33.25;;;;;;;;5092221;28;11037;-82
2021/11/19 03:22:19;;;;;;;;;26.25;23.25;;;;;;;;5093612;28;11135;-83
2021/11/19 03:24:46;;;;;;;;;30.00;27.75;;;;;;;;5089295;28;11080;-78
2021/11/19 03:27:15;;;;;;;;;29.00;26.50;;;;;;;;5085718;28;11073;-82
2021/11/19 03:29:45;;;;;;;;;25.50;24.50;;;;;;;;5074054;28;11131;-82
2021/11/19 03:32:15;;;;;;;;;26.75;26.75;;;;;;;;5086299;28;10834;-82
2021/11/19 03:34:43;;;;;;;;;32.00;28.50;;;;;;;;5091027;28;10983;-81
2021/11/19 03:37:10;;;;;;;;;29.25;25.25;;;;;;;;5100206;28;11084;-80
2021/11/19 03:39:38;;;;;;;;;27.00;25.25;;;;;;;;5088450;28;10997;-82
2021/11/19 03:42:06;;;;;;;;;30.75;30.00;;;;;;;;5089116;28;11668;-81
2021/11/19 03:44:36;;;;;;;;;24.00;24.00;;;;;;;;5088013;28;10981;-82
2021/11/19 03:47:08;;;;;;;;;22.75;18.25;;;;;;;;5084317;28;10910;-82
2021/11/19 03:49:37;;;;;;;;;35.50;30.25;;;;;;;;5085043;28;10980;-82
2021/11/19 03:52:07;;;;;;;;;40.25;30.75;;;;;;;;5085220;28;11025;-82
2021/11/19 03:54:37;;;;;;;;;25.00;23.25;;;;;;;;5096059;28;10947;-81
2021/11/19 03:57:05;;;;;;;;;30.25;28.00;;;;;;;;5090860;28;10946;-81
2021/11/19 03:59:32;;;;;;;;;32.75;30.25;;;;;;;;5088071;28;11052;-82
2021/11/19 04:02:00;;;;;;;;;38.75;33.25;;;;;;;;5090970;27;11016;-81
2021/11/19 04:04:33;;;;;;;;;30.75;29.75;;;;;;;;5093798;28;10911;-82
2021/11/19 04:07:03;;;;;;;;;29.75;29.25;;;;;;;;5100922;28;12020;-80
2021/11/19 04:09:31;;;;;;;;;25.75;25.75;;;;;;;;5104444;28;10945;-83
2021/11/19 04:12:01;;;;;;;;;32.50;29.25;;;;;;;;5085573;28;11227;-78
2021/11/19 04:14:29;;;;;;;;;36.00;29.50;;;;;;;;5090318;28;11003;-81
2021/11/19 04:17:01;;;;;;;;;31.75;30.50;;;;;;;;5096749;28;11187;-77
2021/11/19 04:19:32;;;;;;;;;23.00;23.00;;;;;;;;5105322;28;11061;-80
2021/11/19 04:22:02;;;;;;;;;38.75;34.50;;;;;;;;5086176;28;10993;-81
2021/11/19 04:24:32;;;;;;;;;26.25;24.00;;;;;;;;5087098;28;11059;-80
2021/11/19 04:27:00;;;;;;;;;35.00;27.00;;;;;;;;5083712;28;11979;-77
2021/11/19 04:29:27;;;;;;;;;23.25;21.00;;;;;;;;5096195;28;10898;-78
2021/11/19 04:31:54;;;;;;;;;27.25;22.50;;;;;;;;5085494;27;10897;-80
2021/11/19 04:34:22;;;;;;;;;32.75;28.50;;;;;;;;5094511;28;10949;-78
2021/11/19 04:36:51;;;;;;;;;38.00;36.75;;;;;;;;5100148;28;10992;-78
2021/11/19 04:39:18;;;;;;;;;44.75;29.50;;;;;;;;5078042;28;11005;-78
2021/11/19 04:41:45;;;;;;;;;30.75;28.75;;;;;;;;5086694;28;11618;-78
2021/11/19 04:44:14;;;;;;;;;27.00;26.50;;;;;;;;5084027;28;11061;-78
2021/11/19 04:46:42;;;;;;;;;33.50;32.00;;;;;;;;5092899;28;11188;-79
2021/11/19 04:49:09;;;;;;;;;33.50;33.50;;;;;;;;5093321;28;10859;-80
2021/11/19 04:51:39;;;;;;;;;24.75;23.75;;;;;;;;5103336;28;10883;-78
2021/11/19 04:54:10;;;;;;;;;35.25;27.00;;;;;;;;5089355;28;11646;-79
2021/11/19 04:56:38;;;;;;;;;36.75;32.75;;;;;;;;5083213;28;10743;-79
2021/11/19 04:59:06;;;;;;;;;34.75;31.00;;;;;;;;5083367;28;10923;-80
2021/11/19 05:01:36;;;;;;;;;29.25;26.50;;;;;;;;5080098;28;10857;-81
2021/11/19 05:04:05;;;;;;;;;35.25;31.00;;;;;;;;5088088;28;10804;-81
2021/11/19 05:06:33;;;;;;;;;27.00;24.50;;;;;;;;5105202;28;10805;-87
2021/11/19 05:09:01;;;;;;;;;31.25;28.50;;;;;;;;5094286;28;10745;-83
2021/11/19 05:11:32;;;;;;;;;32.00;25.75;;;;;;;;5083603;28;10714;-82
2021/11/19 05:14:02;;;;;;;;;27.50;22.25;;;;;;;;5085035;28;10820;-82
2021/11/19 05:16:29;;;;;;;;;29.50;28.25;;;;;;;;5092187;28;10830;-83
2021/11/19 05:18:57;;;;;;;;;32.00;28.50;;;;;;;;5090884;28;10948;-82
2021/11/19 05:21:24;;;;;;;;;31.50;29.75;;;;;;;;5099833;28;10932;-82
2021/11/19 05:23:51;;;;;;;;;28.00;27.00;;;;;;;;5103516;28;10853;-81
2021/11/19 05:26:19;;;;;;;;;29.50;27.75;;;;;;;;5089768;28;10845;-82
2021/11/19 05:28:49;;;;;;;;;37.75;33.75;;;;;;;;5070135;28;10837;-82
2021/11/19 05:31:18;;;;;;;;;35.50;31.25;;;;;;;;5099813;27;10885;-81
2021/11/19 05:33:46;;;;;;;;;31.50;21.50;;;;;;;;5087790;28;10826;-81
2021/11/19 05:36:14;;;;;;;;;31.75;26.00;;;;;;;;5089587;28;10792;-85
2021/11/19 05:38:42;;;;;;;;;31.25;25.50;;;;;;;;5094562;28;10658;-86
2021/11/19 05:41:11;;;;;;;;;37.50;29.75;;;;;;;;5087287;28;10592;-85
2021/11/19 05:43:40;;;;;;;;;27.00;25.25;;;;;;;;5099181;28;10783;-83
2021/11/19 05:46:10;;;;;;;;;29.25;29.25;;;;;;;;5090728;28;10639;-84
2021/11/19 05:48:37;;;;;;;;;17.50;15.50;;;;;;;;5083862;28;10641;-83
2021/11/19 05:51:04;;;;;;;;;27.75;25.00;;;;;;;;5086165;28;10903;-82
2021/11/19 05:53:32;;;;;;;;;35.75;30.75;;;;;;;;5082651;28;10902;-83
2021/11/19 05:56:00;;;;;;;;;37.25;28.50;;;;;;;;5082913;28;10740;-82
2021/11/19 05:58:27;;;;;;;;;32.50;30.50;;;;;;;;5084488;28;10788;-78
2021/11/19 06:00:58;;;;;;;;;39.00;32.50;;;;;;;;5080998;28;10750;-81
2021/11/19 06:03:27;;;;;;;;;30.00;27.75;;;;;;;;5081976;28;10715;-83
2021/11/19 06:05:54;;;;;;;;;29.25;29.25;;;;;;;;5083536;28;10737;-81
2021/11/19 06:08:22;;;;;;;;;27.50;27.00;;;;;;;;5082527;28;11559;-87
2021/11/19 06:10:53;;;;;;;;;35.50;30.00;;;;;;;;5085498;28;10674;-84
2021/11/19 06:13:24;;;;;;;;;27.25;27.25;;;;;;;;5083731;28;10661;-82
2021/11/19 06:15:56;;;;;;;;;27.25;23.25;;;;;;;;5082289;28;10683;-86
2021/11/19 06:18:27;;;;;;;;;27.25;26.00;;;;;;;;5082085;28;10896;-85
2021/11/19 06:20:56;;;;;;;;;41.50;33.00;;;;;;;;5081967;28;10616;-81
2021/11/19 06:23:27;;;;;;;;;32.50;31.50;;;;;;;;5083982;28;10583;-82
2021/11/19 06:25:55;;;;;;;;;30.75;27.75;;;;;;;;5083075;28;10733;-83
2021/11/19 06:28:25;;;;;;;;;27.75;23.75;;;;;;;;5092928;28;10804;-76
2021/11/19 06:30:53;;;;;;;;;32.00;30.50;;;;;;;;5078907;28;10592;-77
2021/11/19 06:33:21;;;;;;;;;38.50;31.50;;;;;;;;5080714;28;10662;-76
2021/11/19 06:35:50;;;;;;;;;33.00;32.00;;;;;;;;5080195;28;10749;-75
2021/11/19 06:38:18;;;;;;;;;27.50;24.75;;;;;;;;5113326;27;11606;-74
2021/11/19 06:40:46;;;;;;;;;28.75;27.25;;;;;;;;5089004;28;11283;-76
2021/11/19 06:43:13;;;;;;;;;35.25;33.75;;;;;;;;5086448;28;10685;-75
2021/11/19 06:45:40;;;;;;;;;49.25;36.00;;;;;;;;5086463;28;10734;-75
2021/11/19 06:48:08;;;;;;;;;27.25;26.00;;;;;;;;5087120;28;10788;-76
2021/11/19 06:50:38;;;;;;;;;32.00;30.50;;;;;;;;5088543;28;10688;-74
2021/11/19 06:53:07;;;;;;;;;41.75;31.75;;;;;;;;5083508;28;10873;-74
2021/11/19 06:55:36;;;;;;;;;27.00;23.75;;;;;;;;5084606;28;10837;-76
2021/11/19 06:58:04;;;;;;;;;33.00;29.00;;;;;;;;5086611;28;10718;-76
2021/11/19 07:00:34;;;;;;;;;24.00;24.00;;;;;;;;5084769;28;10667;-76
2021/11/19 07:03:02;;;;;;;;;31.25;27.75;;;;;;;;5087309;28;10715;-75
2021/11/19 07:05:30;;;;;;;;;27.25;27.25;;;;;;;;5084779;28;10732;-75
2021/11/19 07:07:58;;;;;;;;;28.50;22.25;;;;;;;;5086494;28;10745;-75
2021/11/19 07:10:28;;;;;;;;;34.75;26.25;;;;;;;;5086316;28;10582;-75
2021/11/19 07:12:56;;;;;;;;;31.00;27.00;;;;;;;;5096021;28;10794;-76
2021/11/19 07:15:23;;;;;;;;;29.75;26.50;;;;;;;;5092615;27;11456;-75
2021/11/19 07:17:51;;;;;;;;;34.25;28.25;;;;;;;;5090999;28;11564;-75
2021/11/19 07:20:21;;;;;;;;;27.00;27.00;;;;;;;;5087753;28;10823;-76
2021/11/19 07:22:48;;;;;;;;;35.00;30.50;;;;;;;;5093707;28;10667;-75
2021/11/19 07:25:17;;;;;;;;;29.00;23.25;;;;;;;;5088331;28;10758;-76
2021/11/19 07:27:48;;;;;;;;;28.00;28.00;;;;;;;;5089594;28;10703;-75
2021/11/19 07:30:19;;;;;;;;;35.50;31.50;;;;;;;;5102882;27;10592;-74
2021/11/19 07:32:47;;;;;;;;;32.25;29.25;;;;;;;;5102278;28;10685;-75
2021/11/19 07:35:14;;;;;;;;;27.75;23.75;;;;;;;;5099334;28;10666;-76
2021/11/19 07:37:42;;;;;;;;;44.25;39.50;;;;;;;;5083457;28;10746;-76
2021/11/19 07:40:12;;;;;;;;;32.25;30.00;;;;;;;;5085927;28;11022;-76
2021/11/19 07:42:40;;;;;;;;;33.25;26.75;;;;;;;;5085294;28;10719;-76
2021/11/19 07:45:11;;;;;;;;;33.25;29.50;;;;;;;;5116949;27;11631;-76
2021/11/19 07:47:39;;;;;;;;;33.00;30.00;;;;;;;;5081738;28;10842;-76
2021/11/19 07:50:10;;;;;;;;;31.75;30.75;;;;;;;;5091456;28;10951;-76
2021/11/19 07:52:37;;;;;;;;;27.25;25.25;;;;;;;;5104532;28;10841;-75
2021/11/19 07:55:06;;;;;;;;;38.25;30.50;;;;;;;;5100517;28;10763;-76
2021/11/19 07:57:34;;;;;;;;;33.75;31.50;;;;;;;;5085063;28;10754;-76
2021/11/19 08:00:01;;;;;;;;;40.00;33.50;;;;;;;;5084977;28;10762;-75
2021/11/19 08:02:29;;;;;;;;;38.00;29.75;;;;;;;;5087665;28;10782;-76
2021/11/19 08:04:57;;;;;;;;;36.25;36.25;;;;;;;;5104450;28;10846;-75
2021/11/19 08:07:24;;;;;;;;;38.25;36.00;;;;;;;;5105753;28;10927;-75
2021/11/19 08:09:51;;;;;;;;;27.75;27.75;;;;;;;;5099388;28;11717;-75
2021/11/19 08:12:19;;;;;;;;;29.25;27.75;;;;;;;;5085524;28;10720;-76
2021/11/19 08:14:46;;;;;;;;;32.75;29.00;;;;;;;;5084728;28;10681;-76
2021/11/19 08:17:19;;;;;;;;;32.50;30.50;;;;;;;;5084132;28;11999;-75
2021/11/19 08:19:49;;;;;;;;;34.25;32.50;;;;;;;;5092442;28;10851;-75
2021/11/19 08:22:17;;;;;;;;;26.50;20.75;;;;;;;;5083899;28;10738;-75
2021/11/19 08:24:46;;;;;;;;;35.75;31.25;;;;;;;;5069266;28;10708;-76
2021/11/19 08:27:16;;;;;;;;;35.50;33.25;;;;;;;;5071945;28;10657;-76
2021/11/19 08:29:47;;;;;;;;;41.25;34.50;;;;;;;;5064700;28;10799;-76
2021/11/19 08:32:15;;;;;;;;;33.25;31.75;;;;;;;;5084156;27;10650;-75
2021/11/19 08:34:42;;;;;;;;;28.75;26.00;;;;;;;;5069870;28;10655;-75
2021/11/19 08:37:12;;;;;;;;;28.75;28.75;;;;;;;;5076076;28;10681;-75
2021/11/19 08:39:39;;;;;;;;;35.50;33.50;;;;;;;;5080533;28;10874;-75
2021/11/19 08:42:09;;;;;;;;;34.25;28.50;;;;;;;;5064112;28;10830;-75
2021/11/19 08:44:36;;;;;;;;;34.75;31.25;;;;;;;;5073707;28;11347;-76
2021/11/19 08:47:05;;;;;;;;;36.75;36.00;;;;;;;;5084591;28;10752;-76
2021/11/19 08:49:34;;;;;;;;;32.00;29.00;;;;;;;;5084231;28;10790;-75
2021/11/19 08:52:03;;;;;;;;;34.75;31.75;;;;;;;;5081934;28;10476;-75
2021/11/19 08:54:32;;;;;;;;;30.75;28.50;;;;;;;;5084704;28;10592;-76
2021/11/19 08:57:03;;;;;;;;;32.75;31.50;;;;;;;;5069223;28;10493;-76
2021/11/19 08:59:32;;;;;;;;;37.75;34.00;;;;;;;;5083380;28;10828;-76
2021/11/19 09:02:00;;;;;;;;;28.25;28.25;;;;;;;;5078654;27;10490;-75
2021/11/19 09:04:29;;;;;;;;;34.25;28.75;;;;;;;;5084474;28;10673;-75
2021/11/19 09:06:57;;;;;;;;;38.25;33.75;;;;;;;;5072962;28;10360;-75
2021/11/19 09:09:26;;;;;;;;;32.25;32.25;;;;;;;;5065199;28;10386;-75
2021/11/19 09:11:55;;;;;;;;;37.75;32.25;;;;;;;;5073439;28;10456;-75
2021/11/19 09:14:22;;;;;;;;;30.75;30.75;;;;;;;;5083582;28;11103;-76
2021/11/19 09:17:01;;;;;;;;;29.00;27.25;;;;;;;;5068927;28;10530;-76
2021/11/19 09:19:31;;;;;;;;;36.25;29.25;;;;;;;;5063569;28;10368;-75
2021/11/19 09:22:19;;;;;;;;;32.75;30.50;;;;;;;;5084381;28;10480;-75
2021/11/19 09:24:47;;;;;;;;;42.25;36.00;;;;;;;;5095260;28;10441;-75
2021/11/19 09:27:18;;;;;;;;;68.25;54.75;;;;;;;;5081891;28;10528;-75
2021/11/19 09:29:50;;;;;;;;;80.00;62.50;;;;;;;;5090643;28;11526;-75
2021/11/19 09:32:18;;;;;;;;;75.50;59.00;;;;;;;;5082331;28;11544;-75
2021/11/19 09:34:48;;;;;;;;;69.75;56.50;;;;;;;;5085666;28;11585;-75
2021/11/19 09:37:17;;;;;;;;;52.25;43.00;;;;;;;;5088241;28;11553;-75
2021/11/19 09:39:46;;;;;;;;;37.25;34.75;;;;;;;;5084702;28;11357;-75
2021/11/19 09:42:29;;;;;;;;;36.00;32.75;;;;;;;;5089504;28;10331;-75
2021/11/19 09:45:31;;;;;;;;;30.00;28.75;;;;;;;;5082937;28;10305;-75
2021/11/19 09:48:25;;;;;;;;;34.75;30.00;;;;;;;;5087374;28;10401;-75
2021/11/19 09:51:22;;;;;;;;;36.00;32.75;;;;;;;;5097761;28;10233;-75
2021/11/19 09:54:25;;;;;;;;;32.50;29.25;;;;;;;;5103633;28;10193;-75
2021/11/19 09:57:42;;;;;;;;;40.00;32.50;;;;;;;;5098681;28;10074;-75
2021/11/19 10:00:23;;;;;;;;;41.25;32.75;;;;;;;;5083126;28;10374;-76
2021/11/19 10:03:10;;;;;;;;;41.50;35.50;;;;;;;;5096291;28;10031;-76
2021/11/19 10:05:50;;;;;;;;;36.25;32.50;;;;;;;;5089823;28;10044;-75
2021/11/19 10:08:43;;;;;;;;;39.75;34.75;;;;;;;;5088468;28;10198;-75
2021/11/19 10:11:20;;;;;;;;;34.50;29.50;;;;;;;;5099086;28;11018;-75
2021/11/19 10:14:11;;;;;;;;;30.00;30.00;;;;;;;;5091863;28;10041;-75
2021/11/19 10:16:53;;;;;;;;;32.25;30.00;;;;;;;;5107631;28;9921;-75
2021/11/19 10:19:25;;;;;;;;;34.50;34.25;;;;;;;;5084262;28;10029;-75
2021/11/19 10:22:01;;;;;;;;;32.25;30.25;;;;;;;;5104626;28;10123;-75
2021/11/19 10:24:41;;;;;;;;;23.00;20.25;;;;;;;;5107000;28;10075;-75
2021/11/19 10:27:13;;;;;;;;;30.75;30.75;;;;;;;;5074094;28;10067;-75
2021/11/19 10:29:43;;;;;;;;;38.50;36.50;;;;;;;;5101316;28;10033;-75
2021/11/19 10:32:16;;;;;;;;;36.75;30.25;;;;;;;;5106398;27;10016;-75
2021/11/19 10:34:50;;;;;;;;;39.25;35.25;;;;;;;;5097410;28;10020;-75
2021/11/19 10:37:54;;;;;;;;;30.00;27.25;;;;;;;;5088219;28;9882;-75
2021/11/19 10:41:03;;;;;;;;;34.50;34.00;;;;;;;;5044416;28;9962;-76
2021/11/19 10:44:13;;;;;;;;;34.00;32.75;;;;;;;;5099095;28;9989;-75
2021/11/19 10:47:06;;;;;;;;;36.25;31.00;;;;;;;;5064792;28;10120;-75
2021/11/19 10:50:30;;;;;;;;;28.00;26.00;;;;;;;;5093940;28;9887;-76
2021/11/19 10:53:24;;;;;;;;;28.00;24.00;;;;;;;;5016502;28;9732;-76
2021/11/19 10:56:30;;;;;;;;;34.00;27.25;;;;;;;;5088132;28;9567;-75
2021/11/19 10:58:59;;;;;;;;;31.33;28.00;;;;;;;;5086078;28;9485;-76
2021/11/19 11:01:37;;;;;;;;;24.67;21.67;;;;;;;;5104915;27;9275;-76
2021/11/19 11:04:18;;;;;;;;;31.67;26.00;;;;;;;;5106504;28;9179;-75
2021/11/19 11:06:52;;;;;;;;;31.67;28.33;;;;;;;;5106776;28;9112;-75
2021/11/19 11:09:44;;;;;;;;;28.67;25.33;;;;;;;;5096747;28;9051;-76
2021/11/19 11:12:28;;;;;;;;;22.50;17.25;;;;;;;;5101391;28;8942;-76
2021/11/19 11:15:13;;;;;;;;;29.00;26.00;;;;;;;;5086735;28;8928;-76
2021/11/19 11:18:21;;;;;;;;;33.00;26.25;;;;;;;;5074179;28;8874;-77
2021/11/19 11:21:03;;;;;;;;;27.00;25.00;;;;;;;;5050431;28;9649;-77
2021/11/19 11:23:33;;;;;;;;;22.25;22.25;;;;;;;;5100755;28;8865;-77
2021/11/19 11:26:09;;;;;;;;;32.33;31.00;;;;;;;;5095483;28;9700;-76
2021/11/19 11:28:53;;;;;;;;;24.50;22.50;;;;;;;;5088499;28;9045;-75
2021/11/19 11:31:47;;;;;;;;;28.25;20.00;;;;;;;;5101726;27;8829;-76
2021/11/19 11:34:20;;;;;;;;;29.50;27.25;;;;;;;;5101391;28;8864;-76
2021/11/19 11:36:51;;;;;;;;;30.00;26.25;;;;;;;;5085613;28;8860;-76
2021/11/19 11:39:22;;;;;;;;;32.25;25.75;;;;;;;;5091623;28;8890;-76
2021/11/19 11:42:04;;;;;;;;;26.75;24.25;;;;;;;;5083689;28;8856;-77
2021/11/19 11:44:40;;;;;;;;;24.50;22.75;;;;;;;;5089035;28;8868;-72
2021/11/19 11:47:12;;;;;;;;;29.25;24.00;;;;;;;;5095253;28;8972;-74
2021/11/19 11:49:47;;;;;;;;;20.00;20.00;;;;;;;;5091712;27;8864;-74
2021/11/19 11:52:28;;;;;;;;;25.50;21.25;;;;;;;;5098172;28;8845;-76
2021/11/19 11:55:20;;;;;;;;;28.00;25.00;;;;;;;;5116294;27;8867;-78
2021/11/19 11:58:04;;;;;;;;;32.00;26.50;;;;;;;;5085731;28;8852;-77
2021/11/19 12:00:35;;;;;;;;;26.50;25.75;;;;;;;;5083015;28;8791;-75
2021/11/19 12:03:20;;;;;;;;;26.75;24.75;;;;;;;;5089701;28;8868;-75
2021/11/19 12:05:51;;;;;;;;;29.50;26.00;;;;;;;;5077770;28;8867;-75
2021/11/19 12:09:02;;;;;;;;;19.50;17.75;;;;;;;;5083796;28;8868;-75
2021/11/19 12:12:04;;;;;;;;;26.50;25.00;;;;;;;;5037571;28;8870;-75
2021/11/19 12:14:50;;;;;;;;;25.50;24.25;;;;;;;;5091531;28;8861;-74
2021/11/19 12:17:32;;;;;;;;;23.75;23.00;;;;;;;;5098689;28;8875;-75
2021/11/19 12:20:08;;;;;;;;;19.75;19.50;;;;;;;;5089428;28;8910;-77
2021/11/19 12:22:40;;;;;;;;;32.50;21.25;;;;;;;;5104953;28;8876;-75
2021/11/19 12:25:26;;;;;;;;;31.75;25.25;;;;;;;;5097675;28;8888;-75
2021/11/19 12:27:55;;;;;;;;;19.75;17.75;;;;;;;;5095767;28;8861;-76
2021/11/19 12:30:30;;;;;;;;;20.25;19.00;;;;;;;;5082324;27;8865;-76
2021/11/19 12:33:05;;;;;;;;;22.25;18.75;;;;;;;;5092794;28;8864;-75
2021/11/19 12:35:37;;;;;;;;;20.00;19.75;;;;;;;;5096310;28;9672;-78
2021/11/19 12:38:07;;;;;;;;;27.75;24.75;;;;;;;;5098027;28;8890;-78
2021/11/19 12:40:41;;;;;;;;;18.25;17.75;;;;;;;;5087485;28;8853;-74
2021/11/19 12:43:40;;;;;;;;;19.50;15.25;;;;;;;;5084382;28;8872;-77
2021/11/19 12:46:19;;;;;;;;;15.75;15.75;;;;;;;;5091597;28;8873;-77
2021/11/19 12:49:34;;;;;;;;;14.75;12.25;;;;;;;;5104721;28;8892;-76
2021/11/19 12:52:05;;;;;;;;;15.75;11.50;;;;;;;;5028571;28;8908;-76
2021/11/19 12:54:43;;;;;;;;;17.75;17.25;;;;;;;;5105145;28;8869;-76
2021/11/19 12:57:39;;;;;;;;;12.50;10.25;;;;;;;;5096518;28;8855;-77
2021/11/19 13:00:21;;;;;;;;;13.25;13.25;;;;;;;;5098084;27;8880;-77
2021/11/19 13:03:15;;;;;;;;;11.50;10.25;;;;;;;;5097160;28;8900;-76
2021/11/19 13:06:07;;;;;;;;;15.00;15.00;;;;;;;;5092977;28;8853;-76
2021/11/19 13:08:45;;;;;;;;;10.25;10.25;;;;;;;;5086540;28;8925;-76
2021/11/19 13:11:45;;;;;;;;;12.50;12.50;;;;;;;;5104754;28;8876;-76
2021/11/19 13:14:42;;;;;;;;;13.25;10.25;;;;;;;;5066435;28;8869;-76
2021/11/19 13:17:49;;;;;;;;;10.50;9.25;;;;;;;;5104437;28;8893;-75
2021/11/19 13:21:01;;;;;;;;;4.00;4.00;;;;;;;;5079080;28;8875;-77
2021/11/19 13:23:43;;;;;;;;;7.00;7.00;;;;;;;;5062113;28;8863;-76
2021/11/19 13:26:38;;;;;;;;;4.75;4.75;;;;;;;;5097604;28;8916;-75
2021/11/19 13:29:10;;;;;;;;;3.00;1.25;;;;;;;;5089368;28;8877;-76
2021/11/19 13:31:39;;;;;;;;;6.00;5.50;;;;;;;;5096552;27;8810;-76
2021/11/19 13:34:30;;;;;;;;;4.00;4.00;;;;;;;;5104641;28;8865;-76
2021/11/19 13:37:21;;;;;;;;;5.25;4.75;;;;;;;;5098318;28;8879;-76
2021/11/19 13:39:50;;;;;;;;;4.25;4.25;;;;;;;;5077698;28;8871;-76
2021/11/19 13:42:42;;;;;;;;;4.25;4.00;;;;;;;;5083120;28;8878;-76
2021/11/19 13:45:13;;;;;;;;;5.50;5.50;;;;;;;;5090125;28;8849;-76
2021/11/19 13:48:08;;;;;;;;;5.00;5.00;;;;;;;;5105313;28;8877;-76
2021/11/19 13:51:08;;;;;;;;;4.50;4.50;;;;;;;;5108787;28;9643;-75
2021/11/19 13:53:50;;;;;;;;;4.50;4.25;;;;;;;;5106885;28;8910;-76
2021/11/19 13:56:25;;;;;;;;;6.50;5.00;;;;;;;;5106027;28;8895;-76
2021/11/19 13:58:59;;;;;;;;;10.75;8.25;;;;;;;;5092959;28;8845;-76
2021/11/19 14:01:36;;;;;;;;;7.00;6.25;;;;;;;;5099789;27;8808;-75
2021/11/19 14:04:05;;;;;;;;;8.00;7.50;;;;;;;;5083080;28;8895;-75
2021/11/19 14:06:40;;;;;;;;;6.00;6.00;;;;;;;;5140479;27;8873;-77
2021/11/19 14:09:09;;;;;;;;;8.00;8.00;;;;;;;;5107914;28;8885;-77
2021/11/19 14:11:40;;;;;;;;;12.50;12.50;;;;;;;;5102185;28;8883;-76
2021/11/19 14:14:16;;;;;;;;;12.50;10.00;;;;;;;;5086668;28;8911;-75
2021/11/19 14:16:53;;;;;;;;;11.25;11.25;;;;;;;;5087594;28;8882;-76
2021/11/19 14:19:32;;;;;;;;;8.50;8.00;;;;;;;;5073976;28;8882;-75
2021/11/19 14:22:04;;;;;;;;;11.00;11.00;;;;;;;;5076917;28;8898;-76
2021/11/19 14:24:34;;;;;;;;;11.00;9.00;;;;;;;;5102594;28;8881;-76
2021/11/19 14:27:13;;;;;;;;;9.75;8.50;;;;;;;;5103694;28;8904;-77
2021/11/19 14:29:43;;;;;;;;;13.00;11.00;;;;;;;;5087213;28;8884;-77
2021/11/19 14:32:12;;;;;;;;;11.75;11.75;;;;;;;;5085409;28;8844;-76
2021/11/19 14:34:43;;;;;;;;;10.75;10.75;;;;;;;;5098145;28;8857;-76
2021/11/19 14:37:17;;;;;;;;;11.25;11.25;;;;;;;;5095197;28;8857;-76
2021/11/19 14:39:46;;;;;;;;;10.50;10.50;;;;;;;;5087902;28;8891;-76
2021/11/19 14:42:19;;;;;;;;;11.75;11.25;;;;;;;;5085747;28;8880;-76
2021/11/19 14:44:50;;;;;;;;;13.75;9.75;;;;;;;;5091654;28;9009;-76
2021/11/19 14:47:22;;;;;;;;;10.25;8.00;;;;;;;;5107901;28;8861;-76
2021/11/19 14:49:54;;;;;;;;;9.50;9.50;;;;;;;;5101244;28;8885;-76
2021/11/19 14:52:29;;;;;;;;;14.75;12.75;;;;;;;;5107182;28;8885;-75
2021/11/19 14:55:13;;;;;;;;;57.25;41.75;;;;;;;;5108027;28;8893;-79
2021/11/19 14:57:46;;;;;;;;;62.25;51.75;;;;;;;;5093947;28;10431;-76
2021/11/19 15:00:29;;;;;;;;;15.75;15.00;;;;;;;;5084124;28;9833;-76